Time;durP1;ratioP1;P1;durP2;ratioP2;P2;SDS_P1;SDS_P2;PMS_P1;PMS_P2;Temp;Humidity;BMP_temperature;BMP_pressure;BME280_temperature;BME280_humidity;BME280_pressure;Samples;Min_cycle;Max_cycle;Signal;HPM_P1;HPM_P2
2022/04/22 00:01:16;;;;;;;12.57;6.80;;;8.10;99.90;;;;;;5048612;28;20040;-44
2022/04/22 00:03:42;;;;;;;16.40;8.23;;;8.50;99.90;;;;;;5048418;28;20041;-43
2022/04/22 00:06:08;;;;;;;15.50;7.35;;;8.90;99.90;;;;;;5048782;28;20041;-42
2022/04/22 00:08:34;;;;;;;20.27;8.23;;;8.00;99.90;;;;;;5048415;28;20079;-44
2022/04/22 00:13:44;;;;;;;19.27;7.45;;;8.20;99.90;;;;;;5049140;28;20495;-44
2022/04/22 00:16:10;;;;;;;16.92;8.25;;;8.10;99.90;;;;;;5048859;28;20116;-44
2022/04/22 00:18:36;;;;;;;14.98;7.93;;;8.70;99.90;;;;;;5048766;28;20076;-45
2022/04/22 00:21:02;;;;;;;19.23;8.60;;;8.20;99.90;;;;;;5048465;28;20079;-44
2022/04/22 00:23:28;;;;;;;15.82;8.27;;;8.20;99.90;;;;;;5051276;28;20069;-44
2022/04/22 00:25:55;;;;;;;17.73;9.20;;;8.20;99.90;;;;;;5052649;28;20108;-45
2022/04/22 00:28:21;;;;;;;14.52;8.32;;;7.70;99.90;;;;;;5052393;28;20037;-44
2022/04/22 00:30:47;;;;;;;14.50;8.00;;;8.30;99.90;;;;;;5052113;28;20064;-44
2022/04/22 00:33:16;;;;;;;15.00;9.52;;;7.90;99.90;;;;;;5052533;28;20408;-44
2022/04/22 00:35:44;;;;;;;13.90;8.00;;;7.20;99.90;;;;;;5052227;28;20040;-43
2022/04/22 00:38:10;;;;;;;17.55;8.20;;;7.40;99.90;;;;;;5051905;28;20477;-45
2022/04/22 00:40:35;;;;;;;16.95;9.20;;;7.40;99.90;;;;;;5052051;28;20048;-44
2022/04/22 00:43:21;;;;;;;19.67;8.10;;;7.00;99.90;;;;;;5051778;28;20037;-43
2022/04/22 00:45:48;;;;;;;17.52;8.25;;;7.40;99.90;;;;;;5051877;28;20762;-44
2022/04/22 00:48:15;;;;;;;16.35;8.77;;;7.40;99.90;;;;;;5052260;28;20083;-44
2022/04/22 00:50:41;;;;;;;14.18;8.30;;;8.10;99.90;;;;;;5051897;28;20098;-44
2022/04/22 00:53:07;;;;;;;15.70;8.38;;;7.40;99.90;;;;;;5051913;28;20049;-43
2022/04/22 00:55:37;;;;;;;17.85;8.32;;;7.40;99.90;;;;;;5051789;28;20087;-43
2022/04/22 00:58:04;;;;;;;17.95;8.48;;;7.30;99.90;;;;;;5051575;28;20153;-43
2022/04/22 01:00:30;;;;;;;14.27;8.45;;;7.90;99.90;;;;;;5050468;28;20107;-44
2022/04/22 01:02:55;;;;;;;14.70;9.23;;;7.50;99.90;;;;;;5051749;28;20041;-43
2022/04/22 01:10:53;;;;;;;22.00;10.35;;;7.50;99.90;;;;;;5051732;28;20060;-43
2022/04/22 01:13:20;;;;;;;19.35;9.63;;;7.10;99.90;;;;;;5051446;28;20548;-43
2022/04/22 01:15:46;;;;;;;19.20;10.30;;;7.10;99.90;;;;;;5050980;28;20544;-42
2022/04/22 01:18:14;;;;;;;16.85;9.68;;;7.20;99.90;;;;;;5051586;28;20482;-44
2022/04/22 01:20:40;;;;;;;20.70;8.88;;;7.40;99.90;;;;;;5050159;28;20048;-45
2022/04/22 01:23:06;;;;;;;17.73;9.63;;;7.10;99.90;;;;;;5051604;28;20094;-44
2022/04/22 01:25:31;;;;;;;20.23;9.63;;;6.80;99.90;;;;;;5051284;28;20041;-43
2022/04/22 01:27:59;;;;;;;20.85;9.75;;;7.10;99.90;;;;;;5051529;28;20851;-43
2022/04/22 01:30:25;;;;;;;14.35;9.73;;;7.10;99.90;;;;;;5050812;28;20118;-43
2022/04/22 01:32:54;;;;;;;19.15;9.60;;;7.10;99.90;;;;;;5051207;28;20059;-42
2022/04/22 01:35:20;;;;;;;25.13;10.95;;;6.90;99.90;;;;;;5049848;28;20535;-45
2022/04/22 01:37:47;;;;;;;18.10;8.65;;;7.10;99.90;;;;;;5050596;28;20546;-44
2022/04/22 01:40:13;;;;;;;19.67;9.27;;;7.10;99.90;;;;;;5051061;28;20099;-44
2022/04/22 01:42:39;;;;;;;24.02;9.73;;;7.00;99.90;;;;;;5050778;28;20045;-43
2022/04/22 01:45:07;;;;;;;18.95;10.23;;;7.00;99.90;;;;;;5051045;28;20051;-43
2022/04/22 01:47:32;;;;;;;17.35;9.85;;;7.00;99.90;;;;;;5050344;28;20142;-42
2022/04/22 01:49:59;;;;;;;21.35;9.57;;;7.00;99.90;;;;;;5050610;28;20045;-44
2022/04/22 01:52:25;;;;;;;21.33;10.73;;;6.90;99.90;;;;;;5050229;28;20084;-43
2022/04/22 01:54:52;;;;;;;22.25;10.65;;;6.90;99.90;;;;;;5050470;28;20490;-43
2022/04/22 01:57:18;;;;;;;25.23;9.25;;;6.70;99.90;;;;;;5050607;28;20056;-43
2022/04/22 01:59:46;;;;;;;17.58;10.52;;;6.70;99.90;;;;;;5050445;28;20041;-44
2022/04/22 02:02:13;;;;;;;17.67;9.88;;;6.70;99.90;;;;;;5050218;28;20098;-43
2022/04/22 02:04:39;;;;;;;24.83;10.50;;;6.60;99.90;;;;;;5049683;28;20040;-44
2022/04/22 02:07:05;;;;;;;19.95;9.57;;;6.30;99.90;;;;;;5050568;28;20120;-44
2022/04/22 02:09:31;;;;;;;16.20;9.18;;;6.40;99.90;;;;;;5050402;28;20048;-43
2022/04/22 02:11:57;;;;;;;19.70;9.85;;;6.20;99.90;;;;;;5050356;28;20045;-44
2022/04/22 02:14:23;;;;;;;22.27;9.55;;;6.70;99.90;;;;;;5050362;28;20075;-43
2022/04/22 02:16:49;;;;;;;16.40;9.63;;;6.30;99.90;;;;;;5050088;28;20049;-43
2022/04/22 02:19:14;;;;;;;19.50;10.25;;;5.90;99.90;;;;;;5050151;28;20040;-44
2022/04/22 02:21:41;;;;;;;18.52;9.63;;;6.20;99.90;;;;;;5049992;28;20053;-43
2022/04/22 02:24:07;;;;;;;19.75;9.80;;;6.20;99.90;;;;;;5050122;28;20522;-44
2022/04/22 02:28:31;;;;;;;20.67;10.48;;;6.20;99.90;;;;;;5049775;28;20045;-43
2022/04/22 02:29:19;;;;;;;19.75;10.07;;;6.60;99.90;;;;;;5049765;28;20121;-43
2022/04/22 02:31:46;;;;;;;16.42;9.30;;;6.30;99.90;;;;;;5049418;28;20071;-44
2022/04/22 02:34:12;;;;;;;16.20;9.13;;;6.20;99.90;;;;;;5050180;28;20443;-43
2022/04/22 02:36:37;;;;;;;15.43;8.88;;;6.20;99.90;;;;;;5049674;28;20098;-44
2022/04/22 02:39:03;;;;;;;18.88;8.45;;;6.10;99.90;;;;;;5050041;28;20041;-43
2022/04/22 02:46:58;;;;;;;14.13;8.57;;;6.70;99.90;;;;;;5049267;28;20187;-44
2022/04/22 02:49:23;;;;;;;14.30;8.50;;;6.20;99.90;;;;;;5049714;28;20597;-43
2022/04/22 02:51:49;;;;;;;13.77;9.07;;;6.40;99.90;;;;;;5049621;28;20595;-42
2022/04/22 02:54:15;;;;;;;16.00;8.13;;;6.10;99.90;;;;;;5049580;28;20585;-45
2022/04/22 02:56:40;;;;;;;13.77;8.02;;;6.10;99.90;;;;;;5049025;28;20045;-43
2022/04/22 02:59:07;;;;;;;19.05;7.65;;;6.00;99.90;;;;;;5049493;28;20174;-44
2022/04/22 03:01:36;;;;;;;13.45;7.80;;;6.00;99.90;;;;;;5049746;28;20056;-43
2022/04/22 03:04:03;;;;;;;17.20;8.35;;;5.90;99.90;;;;;;5048525;28;20123;-43
2022/04/22 03:06:29;;;;;;;15.00;7.60;;;5.90;99.90;;;;;;5049453;28;20361;-44
2022/04/22 03:08:55;;;;;;;17.88;7.13;;;5.50;99.90;;;;;;5049141;28;20056;-43
2022/04/22 03:11:21;;;;;;;11.38;6.38;;;5.60;99.90;;;;;;5049463;28;20045;-43
2022/04/22 03:13:51;;;;;;;12.20;7.10;;;5.70;99.90;;;;;;5048866;28;20707;-43
2022/04/22 03:16:19;;;;;;;12.75;6.72;;;5.70;99.90;;;;;;5049088;28;20056;-42
2022/04/22 03:18:44;;;;;;;10.68;6.05;;;6.60;99.90;;;;;;5048583;28;20053;-43
2022/04/22 03:21:10;;;;;;;14.27;5.80;;;5.60;99.90;;;;;;5049052;28;20048;-43
2022/04/22 03:23:36;;;;;;;10.80;6.70;;;6.40;99.90;;;;;;5048458;28;20147;-44
2022/04/22 03:26:01;;;;;;;10.02;6.45;;;5.50;99.90;;;;;;5048748;28;20040;-46
2022/04/22 03:28:27;;;;;;;12.48;6.13;;;5.60;99.90;;;;;;5048798;28;20124;-42
2022/04/22 03:30:53;;;;;;;12.73;5.97;;;5.60;99.90;;;;;;5048353;28;20041;-44
2022/04/22 03:33:19;;;;;;;12.05;6.18;;;5.60;99.90;;;;;;5049137;28;20060;-43
2022/04/22 03:35:50;;;;;;;14.63;6.60;;;5.50;99.90;;;;;;5049241;28;20045;-43
2022/04/22 03:38:16;;;;;;;10.52;5.80;;;5.30;99.90;;;;;;5049364;28;20399;-43
2022/04/22 03:40:42;;;;;;;10.57;6.45;;;5.50;99.90;;;;;;5049129;28;20123;-44
2022/04/22 03:43:07;;;;;;;15.05;6.47;;;5.30;99.90;;;;;;5048627;28;20061;-43
2022/04/22 03:45:33;;;;;;;14.55;6.43;;;5.60;99.90;;;;;;5049014;28;20041;-43
2022/04/22 03:47:59;;;;;;;12.85;5.95;;;6.10;99.90;;;;;;5048815;28;20041;-44
2022/04/22 03:50:26;;;;;;;12.38;5.50;;;5.60;99.90;;;;;;5049071;28;20047;-44
2022/04/22 03:52:52;;;;;;;12.60;6.97;;;5.60;99.90;;;;;;5048100;28;20049;-44
2022/04/22 03:55:18;;;;;;;11.95;6.53;;;5.60;99.90;;;;;;5048947;28;20119;-44
2022/04/22 04:00:28;;;;;;;11.82;6.78;;;5.60;99.90;;;;;;5053171;28;20055;-43
2022/04/22 04:02:54;;;;;;;14.57;6.07;;;5.50;99.90;;;;;;5052199;28;20041;-43
2022/04/22 04:05:20;;;;;;;9.60;6.50;;;5.50;99.90;;;;;;5051660;28;20094;-44
2022/04/22 04:07:46;;;;;;;8.15;5.22;;;5.40;99.90;;;;;;5052287;28;20466;-43
2022/04/22 04:15:59;;;;;;;8.30;5.60;;;5.30;99.90;;;;;;5052412;28;20110;-47
2022/04/22 04:18:32;;;;;;;9.18;5.88;;;5.20;99.90;;;;;;5052199;28;20648;-43
2022/04/22 04:23:44;;;;;;;10.57;5.55;;;6.00;99.90;;;;;;5052369;28;20048;-43
2022/04/22 04:26:10;;;;;;;11.32;6.30;;;5.10;99.90;;;;;;5052013;28;20040;-44
2022/04/22 04:28:37;;;;;;;14.35;6.88;;;5.10;99.90;;;;;;5052084;28;20119;-43
2022/04/22 04:31:04;;;;;;;11.60;5.85;;;5.00;99.90;;;;;;5051968;28;20501;-43
2022/04/22 04:33:31;;;;;;;11.73;5.65;;;5.20;99.90;;;;;;5052400;28;20099;-45
2022/04/22 04:35:58;;;;;;;10.30;5.32;;;5.90;99.90;;;;;;5052159;28;20053;-45
2022/04/22 04:38:24;;;;;;;8.82;6.10;;;5.30;99.90;;;;;;5052031;28;20128;-43
2022/04/22 04:40:51;;;;;;;12.30;5.43;;;5.50;99.90;;;;;;5050966;28;20831;-43
2022/04/22 04:43:17;;;;;;;10.32;5.43;;;5.40;99.90;;;;;;5051796;28;20041;-44
2022/04/22 04:45:44;;;;;;;12.25;5.43;;;5.50;99.90;;;;;;5051777;28;20049;-45
2022/04/22 04:48:09;;;;;;;9.95;5.18;;;5.40;99.90;;;;;;5052018;28;20049;-44
2022/04/22 04:50:35;;;;;;;10.05;5.57;;;5.60;99.90;;;;;;5052386;28;20040;-43
2022/04/22 04:53:01;;;;;;;8.02;4.60;;;6.30;99.90;;;;;;5051783;28;20045;-45
2022/04/22 04:55:27;;;;;;;11.27;6.53;;;5.60;99.90;;;;;;5052055;28;20761;-45
2022/04/22 04:57:52;;;;;;;12.25;4.88;;;5.70;99.90;;;;;;5051651;28;20045;-44
2022/04/22 05:00:18;;;;;;;13.40;5.05;;;5.70;99.90;;;;;;5051554;28;20041;-44
2022/04/22 05:02:48;;;;;;;11.27;4.82;;;5.80;99.90;;;;;;5052154;28;20426;-43
2022/04/22 05:05:14;;;;;;;11.95;5.03;;;6.50;99.90;;;;;;5051716;28;20045;-44
2022/04/22 05:08:07;;;;;;;6.47;4.03;;;5.90;99.90;;;;;;5050812;28;20045;-43
2022/04/22 05:10:33;;;;;;;;;;;6.40;99.90;;;;;;5051348;28;20153;-44
2022/04/22 05:12:59;;;;;;;9.35;4.50;;;6.60;99.90;;;;;;5051703;28;19921;-45
2022/04/22 05:15:26;;;;;;;14.30;5.32;;;7.40;99.90;;;;;;5051744;28;20040;-42
2022/04/22 05:17:53;;;;;;;8.90;4.45;;;6.90;99.90;;;;;;5051542;28;20507;-43
2022/04/22 05:20:21;;;;;;;12.65;4.82;;;7.60;99.90;;;;;;5049893;28;20080;-44
2022/04/22 05:22:47;;;;;;;8.75;4.55;;;8.90;99.90;;;;;;5051520;28;20045;-47
2022/04/22 05:25:15;;;;;;;8.52;3.78;;;10.10;99.90;;;;;;5050956;28;20040;-44
2022/04/22 05:27:41;;;;;;;8.35;4.13;;;10.70;99.90;;;;;;5051366;28;20045;-45
2022/04/22 05:32:54;;;;;;;6.75;3.40;;;11.80;99.90;;;;;;5051435;28;20049;-47
2022/04/22 05:35:22;;;;;;;6.63;3.30;;;12.60;99.90;;;;;;5049594;28;20187;-44
2022/04/22 05:37:59;;;;;;;6.80;3.20;;;13.20;99.70;;;;;;5051184;28;20041;-44
2022/04/22 05:40:30;;;;;;;6.88;3.05;;;13.90;96.50;;;;;;5049745;28;20056;-45
2022/04/22 05:42:56;;;;;;;6.28;3.20;;;14.50;94.90;;;;;;5051381;28;20128;-43
2022/04/22 05:45:24;;;;;;;6.18;3.30;;;14.90;92.50;;;;;;5051015;28;20040;-44
2022/04/22 05:47:51;;;;;;;7.85;2.53;;;15.50;90.80;;;;;;5050995;28;20044;-43
2022/04/22 05:50:18;;;;;;;5.80;2.67;;;16.00;87.60;;;;;;5050768;28;20116;-44
2022/04/22 05:52:44;;;;;;;5.18;2.85;;;16.50;85.10;;;;;;5051063;28;20048;-44
2022/04/22 05:55:12;;;;;;;7.05;3.08;;;16.90;81.70;;;;;;5050347;28;20045;-45
2022/04/22 05:57:38;;;;;;;7.18;2.53;;;17.20;79.20;;;;;;5050688;28;20045;-43
2022/04/22 06:00:11;;;;;;;5.40;2.35;;;17.40;76.60;;;;;;5050127;28;20412;-45
2022/04/22 06:02:37;;;;;;;5.65;2.50;;;17.90;74.10;;;;;;5050737;28;20468;-45
2022/04/22 06:05:03;;;;;;;5.20;2.47;;;18.20;73.80;;;;;;5048317;28;20087;-46
2022/04/22 06:07:28;;;;;;;4.93;2.63;;;18.50;72.20;;;;;;5050053;28;20048;-45
2022/04/22 06:12:38;;;;;;;4.63;2.17;;;18.30;68.40;;;;;;5050797;28;20052;-46
2022/04/22 06:15:04;;;;;;;4.63;2.00;;;17.80;69.40;;;;;;5050319;28;20040;-45
2022/04/22 06:17:31;;;;;;;5.05;1.95;;;18.70;69.40;;;;;;5031904;28;20041;-47
2022/04/22 06:19:58;;;;;;;4.50;2.35;;;19.20;67.60;;;;;;5049361;28;20480;-44
2022/04/22 06:22:25;;;;;;;3.80;2.13;;;19.10;65.10;;;;;;5049742;28;20048;-45
2022/04/22 06:24:52;;;;;;;6.43;2.13;;;19.30;64.10;;;;;;5049814;28;20041;-45
2022/04/22 06:27:28;;;;;;;6.97;2.40;;;19.50;63.10;;;;;;5049601;28;20037;-45
2022/04/22 06:29:55;;;;;;;7.80;1.90;;;19.90;59.60;;;;;;5049868;28;20106;-44
2022/04/22 06:32:23;;;;;;;7.20;2.38;;;19.90;61.30;;;;;;5049670;28;20051;-45
2022/04/22 06:34:52;;;;;;;4.20;2.10;;;20.20;60.40;;;;;;5049497;28;20131;-43
2022/04/22 06:37:18;;;;;;;6.63;2.15;;;20.60;60.00;;;;;;5049745;28;20116;-45
2022/04/22 06:47:58;;;;;;;5.70;1.52;;;21.10;56.70;;;;;;5049763;28;20060;-45
2022/04/22 06:50:24;;;;;;;4.57;1.40;;;21.20;56.60;;;;;;5048476;28;20052;-45
2022/04/22 06:52:50;;;;;;;3.85;1.50;;;21.10;56.20;;;;;;5049943;28;20033;-47
2022/04/22 06:55:17;;;;;;;3.67;1.20;;;21.20;56.80;;;;;;5049238;28;20569;-44
2022/04/22 06:57:49;;;;;;;4.82;1.52;;;21.50;56.00;;;;;;5049243;28;20053;-43
2022/04/22 07:00:18;;;;;;;7.22;2.10;;;21.80;55.10;;;;;;5049244;28;20065;-45
2022/04/22 07:02:45;;;;;;;4.40;1.27;;;22.30;54.50;;;;;;5049369;28;20113;-44
2022/04/22 07:05:11;;;;;;;4.13;1.48;;;22.40;53.70;;;;;;5048705;28;20048;-45
2022/04/22 07:07:37;;;;;;;3.10;1.10;;;22.60;53.20;;;;;;5049530;28;20052;-44
2022/04/22 07:10:04;;;;;;;2.65;1.17;;;22.90;53.10;;;;;;5049328;28;20049;-45
2022/04/22 07:12:31;;;;;;;8.98;1.30;;;23.00;52.30;;;;;;5049235;28;20583;-47
2022/04/22 07:15:04;;;;;;;3.65;1.45;;;23.10;51.90;;;;;;5049549;28;20041;-45
2022/04/22 07:17:34;;;;;;;3.67;1.33;;;23.20;50.80;;;;;;5049126;28;20430;-45
2022/04/22 07:20:03;;;;;;;3.35;1.55;;;23.20;51.20;;;;;;5048946;28;20618;-44
2022/04/22 07:22:29;;;;;;;3.75;1.35;;;23.00;51.20;;;;;;5047538;28;20101;-45
2022/04/22 07:24:56;;;;;;;2.95;1.10;;;22.80;51.70;;;;;;5048019;28;20056;-46
2022/04/22 07:27:30;;;;;;;3.55;1.23;;;22.10;50.70;;;;;;5049021;28;20175;-47
2022/04/22 07:29:58;;;;;;;2.92;1.15;;;20.90;52.50;;;;;;5048500;28;20500;-44
2022/04/22 07:32:24;;;;;;;4.72;1.10;;;19.90;53.90;;;;;;5047842;28;20045;-44
2022/04/22 07:34:50;;;;;;;4.38;1.25;;;19.10;54.90;;;;;;5048705;28;20105;-44
2022/04/22 07:37:16;;;;;;;4.60;1.02;;;18.50;56.10;;;;;;5049019;28;20777;-44
2022/04/22 07:39:42;;;;;;;4.47;1.00;;;17.90;56.50;;;;;;5048508;28;20094;-44
2022/04/22 07:42:11;;;;;;;3.85;1.30;;;17.30;58.30;;;;;;5049767;28;20045;-44
2022/04/22 07:47:22;;;;;;;8.07;1.30;;;16.20;60.60;;;;;;5049137;28;20055;-43
2022/04/22 07:49:48;;;;;;;3.67;1.30;;;15.70;62.10;;;;;;5049137;28;20045;-44
2022/04/22 07:52:14;;;;;;;3.67;1.50;;;15.30;62.50;;;;;;5049121;28;20131;-43
2022/04/22 07:54:39;;;;;;;3.03;0.98;;;15.30;64.10;;;;;;5047135;28;20153;-43
2022/04/22 07:57:05;;;;;;;3.97;1.20;;;16.10;64.00;;;;;;5048873;28;20048;-43
2022/04/22 07:59:32;;;;;;;4.47;1.40;;;16.80;63.10;;;;;;5048671;28;20097;-43
2022/04/22 08:01:59;;;;;;;2.50;1.30;;;17.20;62.70;;;;;;5048811;28;20102;-45
2022/04/22 08:04:25;;;;;;;3.42;1.30;;;17.60;62.10;;;;;;5048842;28;20107;-43
2022/04/22 08:06:52;;;;;;;3.20;0.90;;;18.00;61.20;;;;;;5048350;28;20040;-44
2022/04/22 08:09:17;;;;;;;5.15;1.08;;;18.60;60.50;;;;;;5049000;28;20044;-44
2022/04/22 08:11:43;;;;;;;4.15;1.40;;;19.40;59.10;;;;;;5047572;28;20569;-44
2022/04/22 08:14:12;;;;;;;3.13;1.08;;;20.30;57.90;;;;;;5048972;28;20493;-45
2022/04/22 08:16:38;;;;;;;5.50;1.60;;;21.50;56.50;;;;;;5047329;28;20128;-44
2022/04/22 08:19:04;;;;;;;2.80;0.93;;;22.30;53.60;;;;;;5048535;28;20045;-44
2022/04/22 08:21:33;;;;;;;3.42;1.40;;;23.20;52.20;;;;;;5048568;28;20086;-46
2022/04/22 08:24:02;;;;;;;4.90;1.42;;;23.60;50.30;;;;;;5048652;28;20077;-44
2022/04/22 08:26:31;;;;;;;3.40;1.02;;;24.40;49.90;;;;;;5048157;28;20124;-45
2022/04/22 08:28:57;;;;;;;3.33;1.20;;;25.20;49.50;;;;;;5048669;28;20138;-44
2022/04/22 08:31:23;;;;;;;3.95;1.00;;;25.50;47.70;;;;;;5048613;28;20102;-44
2022/04/22 08:33:49;;;;;;;5.25;1.10;;;25.70;46.40;;;;;;5048418;28;20044;-45
2022/04/22 08:36:15;;;;;;;3.20;1.35;;;25.50;46.10;;;;;;5048704;28;20076;-44
2022/04/22 08:38:41;;;;;;;4.88;1.17;;;25.60;46.90;;;;;;5048341;28;20448;-45
2022/04/22 08:41:09;;;;;;;3.47;1.15;;;26.40;46.00;;;;;;5048993;28;20080;-45
2022/04/22 08:43:37;;;;;;;3.20;1.20;;;26.20;45.30;;;;;;5049916;28;20053;-45
2022/04/22 08:46:02;;;;;;;3.78;1.40;;;26.50;45.00;;;;;;5052421;28;20110;-45
2022/04/22 08:51:15;;;;;;;3.33;1.38;;;27.10;44.10;;;;;;5051936;28;20136;-45
2022/04/22 08:53:45;;;;;;;5.72;1.17;;;27.80;43.80;;;;;;5052128;28;20049;-45
2022/04/22 08:56:13;;;;;;;5.72;1.10;;;27.90;42.40;;;;;;5052233;28;20044;-44
2022/04/22 08:58:39;;;;;;;3.05;1.02;;;27.90;42.00;;;;;;5051321;28;20045;-45
2022/04/22 09:01:06;;;;;;;3.38;1.30;;;27.90;42.20;;;;;;5051748;28;20053;-45
2022/04/22 09:03:32;;;;;;;5.93;1.05;;;28.00;42.30;;;;;;5051437;28;20041;-45
2022/04/22 09:06:02;;;;;;;4.35;1.00;;;28.10;41.80;;;;;;5050961;28;20378;-44
2022/04/22 09:08:28;;;;;;;6.20;1.02;;;28.70;41.50;;;;;;5051127;28;20699;-46
2022/04/22 09:11:01;;;;;;;5.90;1.33;;;28.60;40.10;;;;;;5049502;28;20475;-44
2022/04/22 09:13:32;;;;;;;3.20;1.27;;;29.00;40.60;;;;;;5051383;28;20106;-45
2022/04/22 09:15:59;;;;;;;3.10;0.73;;;29.30;41.30;;;;;;5051299;28;20044;-42
2022/04/22 09:18:29;;;;;;;2.47;1.02;;;29.50;41.50;;;;;;5051083;28;20299;-44
2022/04/22 09:21:02;;;;;;;3.15;1.15;;;29.70;40.30;;;;;;5051189;28;20567;-44
2022/04/22 09:23:35;;;;;;;3.15;0.90;;;30.10;41.40;;;;;;5049779;28;20443;-44
2022/04/22 09:26:03;;;;;;;4.40;1.30;;;31.00;38.70;;;;;;5051041;28;20071;-45
2022/04/22 09:28:30;;;;;;;3.55;0.98;;;30.30;38.70;;;;;;5051068;28;20124;-43
2022/04/22 09:31:06;;;;;;;4.93;1.00;;;31.20;39.40;;;;;;5050828;28;20059;-46
2022/04/22 09:33:44;;;;;;;4.40;0.88;;;31.20;36.40;;;;;;5051444;28;20041;-44
2022/04/22 09:44:50;;;;;;;2.53;1.10;;;29.00;38.20;;;;;;5050951;28;20087;-43
2022/04/22 09:47:16;;;;;;;4.43;1.40;;;28.50;39.20;;;;;;5050932;28;20061;-42
2022/04/22 09:49:45;;;;;;;2.88;1.23;;;28.40;40.20;;;;;;5050684;28;20529;-43
2022/04/22 09:52:11;;;;;;;4.53;1.10;;;28.50;40.60;;;;;;5050797;28;20049;-44
2022/04/22 09:54:40;;;;;;;3.83;1.15;;;28.70;40.60;;;;;;5049753;28;20396;-43
2022/04/22 09:57:06;;;;;;;3.03;1.33;;;28.40;39.40;;;;;;5050457;28;20096;-43
2022/04/22 09:59:33;;;;;;;6.93;1.23;;;28.00;39.40;;;;;;5050377;28;20045;-43
2022/04/22 10:02:00;;;;;;;4.85;1.23;;;27.50;39.90;;;;;;5048993;28;20558;-44
2022/04/22 10:04:28;;;;;;;2.42;1.10;;;27.80;41.40;;;;;;5050532;28;20049;-45
2022/04/22 10:06:56;;;;;;;7.25;1.38;;;28.00;40.10;;;;;;5049704;28;20041;-43
2022/04/22 10:09:23;;;;;;;4.93;1.52;;;27.60;39.60;;;;;;5050880;28;20053;-43
2022/04/22 10:11:52;;;;;;;7.80;1.58;;;27.60;40.70;;;;;;5050380;28;20045;-44
2022/04/22 10:14:40;;;;;;;6.00;1.63;;;27.60;40.40;;;;;;5050547;28;20040;-46
2022/04/22 10:17:06;;;;;;;3.47;1.27;;;27.70;40.90;;;;;;5050774;28;20037;-44
2022/04/22 10:19:34;;;;;;;4.70;1.38;;;27.40;40.30;;;;;;5050859;28;20044;-43
2022/04/22 10:22:04;;;;;;;7.30;1.25;;;26.90;38.80;;;;;;5050448;28;20393;-47
2022/04/22 10:24:33;;;;;;;7.17;1.70;;;25.90;39.60;;;;;;5050113;28;20048;-42
2022/04/22 10:27:01;;;;;;;5.07;1.55;;;25.10;40.40;;;;;;5049544;28;20041;-42
2022/04/22 10:29:29;;;;;;;4.63;1.83;;;24.70;41.40;;;;;;5050067;28;20057;-42
2022/04/22 10:31:56;;;;;;;2.88;1.55;;;24.10;42.10;;;;;;5049686;28;20060;-42
2022/04/22 10:34:38;;;;;;;9.45;1.85;;;23.70;42.50;;;;;;5050125;28;20101;-42
2022/04/22 10:37:04;;;;;;;2.38;1.40;;;23.80;43.90;;;;;;5049698;28;20049;-42
2022/04/22 10:39:34;;;;;;;4.63;1.95;;;23.70;42.70;;;;;;5049969;28;20040;-43
2022/04/22 10:42:00;;;;;;;4.28;1.88;;;23.80;42.90;;;;;;5049645;28;20107;-42
2022/04/22 10:47:15;;;;;;;5.68;2.53;;;22.30;44.60;;;;;;5050007;28;20650;-43
2022/04/22 10:49:45;;;;;;;5.40;1.83;;;21.10;47.20;;;;;;5050011;28;20045;-44
2022/04/22 10:52:14;;;;;;;3.55;2.22;;;20.20;48.10;;;;;;5049841;28;20049;-43
2022/04/22 10:54:51;;;;;;;6.43;2.20;;;19.30;50.30;;;;;;5050095;28;20048;-45
2022/04/22 10:57:25;;;;;;;4.03;2.05;;;18.80;52.20;;;;;;5049609;28;20040;-46
2022/04/22 11:00:07;;;;;;;4.32;2.00;;;18.40;52.60;;;;;;5048002;28;20033;-45
2022/04/22 11:02:34;;;;;;;3.40;1.48;;;18.00;53.60;;;;;;5049698;28;20048;-46
2022/04/22 11:05:18;;;;;;;9.68;3.80;;;17.80;53.70;;;;;;5049341;28;20449;-43
2022/04/22 11:07:55;;;;;;;7.50;2.72;;;17.70;54.00;;;;;;5048829;28;20060;-44
2022/04/22 11:10:40;;;;;;;4.30;2.38;;;17.60;54.80;;;;;;5049421;28;20051;-44
2022/04/22 11:13:06;;;;;;;7.55;2.38;;;17.40;54.90;;;;;;5049276;28;20496;-46
2022/04/22 11:15:43;;;;;;;7.30;2.25;;;17.30;55.70;;;;;;5049139;28;20044;-43
2022/04/22 11:18:14;;;;;;;3.95;2.20;;;17.30;56.90;;;;;;5049142;28;20041;-43
2022/04/22 11:20:45;;;;;;;4.07;2.13;;;17.40;56.90;;;;;;5049554;28;20049;-43
2022/04/22 11:23:14;;;;;;;6.47;2.40;;;17.40;57.20;;;;;;5049389;28;20154;-43
2022/04/22 11:25:42;;;;;;;8.68;2.63;;;17.40;56.60;;;;;;5049441;28;20551;-44
2022/04/22 11:28:08;;;;;;;6.13;2.67;;;17.30;56.60;;;;;;5049078;28;20119;-44
2022/04/22 11:30:35;;;;;;;4.95;2.38;;;17.30;56.60;;;;;;5048999;28;20057;-47
2022/04/22 11:33:24;;;;;;;5.60;3.08;;;17.30;57.40;;;;;;5048593;28;20048;-45
2022/04/22 11:35:53;;;;;;;5.95;2.17;;;17.30;57.30;;;;;;5049090;28;20598;-45
2022/04/22 11:38:20;;;;;;;5.72;2.05;;;17.40;57.10;;;;;;5049120;28;20115;-45
2022/04/22 11:40:48;;;;;;;5.45;1.90;;;17.40;56.40;;;;;;5049029;28;20095;-44
2022/04/22 11:43:18;;;;;;;8.52;3.47;;;17.40;56.30;;;;;;5048857;28;20151;-43
2022/04/22 11:45:48;;;;;;;5.85;2.50;;;17.30;56.20;;;;;;5049040;28;20037;-44
2022/04/22 11:48:22;;;;;;;5.68;2.53;;;17.20;56.80;;;;;;5048618;28;20048;-45
2022/04/22 11:50:49;;;;;;;6.63;2.30;;;17.20;57.60;;;;;;5048883;28;20041;-44
2022/04/22 11:53:19;;;;;;;6.20;2.90;;;17.20;57.50;;;;;;5048737;28;20120;-46
2022/04/22 11:55:50;;;;;;;4.20;2.63;;;17.30;56.40;;;;;;5049291;28;20117;-44
2022/04/22 11:58:17;;;;;;;7.70;2.70;;;17.20;56.60;;;;;;5048669;28;20559;-46
2022/04/22 12:06:14;;;;;;;4.40;2.47;;;17.30;56.80;;;;;;5048586;28;20614;-48
2022/04/22 12:08:53;;;;;;;4.72;2.53;;;17.50;56.80;;;;;;5048141;28;20132;-44
2022/04/22 12:11:19;;;;;;;6.55;2.25;;;17.50;57.10;;;;;;5048510;28;20041;-48
2022/04/22 12:13:49;;;;;;;6.00;2.60;;;17.60;56.70;;;;;;5048462;28;20033;-45
2022/04/22 12:16:19;;;;;;;6.35;2.95;;;17.60;56.70;;;;;;5048303;28;20041;-45
2022/04/22 12:18:49;;;;;;;6.35;2.78;;;17.70;56.60;;;;;;5050025;28;20550;-45
2022/04/22 12:21:17;;;;;;;5.05;2.75;;;17.90;56.50;;;;;;5052392;28;20057;-45
2022/04/22 12:23:45;;;;;;;4.72;2.28;;;17.90;56.40;;;;;;5052435;28;20044;-44
2022/04/22 12:26:21;;;;;;;4.90;2.72;;;18.00;56.50;;;;;;5051915;28;20080;-44
2022/04/22 12:28:57;;;;;;;5.35;2.83;;;18.10;56.50;;;;;;5052286;28;20098;-43
2022/04/22 12:31:24;;;;;;;5.63;3.10;;;18.10;56.30;;;;;;5052351;28;20495;-45
2022/04/22 12:34:10;;;;;;;9.65;3.20;;;18.10;56.40;;;;;;5052683;28;20490;-45
2022/04/22 12:36:43;;;;;;;5.97;3.33;;;18.20;56.70;;;;;;5052499;28;20102;-45
2022/04/22 12:39:08;;;;;;;9.15;3.92;;;18.00;56.20;;;;;;5051854;28;20076;-45
2022/04/22 12:41:47;;;;;;;6.57;3.15;;;17.90;56.50;;;;;;5052470;28;20076;-48
2022/04/22 12:44:14;;;;;;;8.32;3.78;;;17.90;57.80;;;;;;5051769;28;20048;-46
2022/04/22 12:52:24;;;;;;;5.82;3.80;;;18.40;56.10;;;;;;5051427;28;20110;-44
2022/04/22 12:54:50;;;;;;;9.52;3.45;;;18.40;56.10;;;;;;5051463;28;20512;-45
2022/04/22 12:57:25;;;;;;;8.18;3.88;;;18.40;56.40;;;;;;5051402;28;20067;-44
2022/04/22 12:59:54;;;;;;;9.65;3.55;;;18.50;56.20;;;;;;5051122;28;20048;-44
2022/04/22 13:02:27;;;;;;;8.93;3.88;;;18.60;56.30;;;;;;5051305;28;20492;-44
2022/04/22 13:04:59;;;;;;;8.57;4.45;;;18.60;56.10;;;;;;5051403;28;20063;-44
2022/04/22 13:07:25;;;;;;;7.23;3.93;;;18.60;56.50;;;;;;5051226;28;20043;-43
2022/04/22 13:09:51;;;;;;;7.85;4.10;;;18.60;56.40;;;;;;5050981;28;20037;-44
2022/04/22 13:12:17;;;;;;;5.90;3.80;;;18.60;56.30;;;;;;5049837;28;20518;-45
2022/04/22 13:14:43;;;;;;;8.68;3.97;;;18.50;56.20;;;;;;5051177;28;20037;-45
2022/04/22 13:17:19;;;;;;;7.55;4.35;;;18.40;56.40;;;;;;5051309;28;20098;-46
2022/04/22 13:19:44;;;;;;;12.38;4.60;;;18.30;57.20;;;;;;5051348;28;20080;-44
2022/04/22 13:22:10;;;;;;;8.07;4.32;;;18.30;57.20;;;;;;5050818;28;20076;-45
2022/04/22 13:24:36;;;;;;;6.13;3.80;;;18.30;57.30;;;;;;5050981;28;20045;-46
2022/04/22 13:27:02;;;;;;;5.95;4.07;;;18.20;57.10;;;;;;5050844;28;20047;-44
2022/04/22 13:29:28;;;;;;;7.95;3.75;;;18.30;57.30;;;;;;5049456;28;20060;-45
2022/04/22 13:31:54;;;;;;;7.25;4.20;;;18.30;57.90;;;;;;5050580;28;20519;-46
2022/04/22 13:34:19;;;;;;;10.57;4.00;;;18.30;57.90;;;;;;5051101;28;20045;-44
2022/04/22 13:36:45;;;;;;;6.35;3.88;;;18.20;56.70;;;;;;5051244;28;20049;-44
2022/04/22 13:39:11;;;;;;;6.43;3.90;;;18.20;57.00;;;;;;5050899;28;20060;-49
2022/04/22 13:41:36;;;;;;;6.47;3.92;;;18.30;56.70;;;;;;5050983;28;20049;-43
2022/04/22 13:44:05;;;;;;;6.38;3.70;;;18.30;57.20;;;;;;5051067;28;20090;-45
2022/04/22 13:54:44;;;;;;;7.10;3.78;;;18.10;58.30;;;;;;5050882;28;20060;-45
2022/04/22 13:57:10;;;;;;;12.02;3.92;;;18.30;57.70;;;;;;5050656;28;20041;-43
2022/04/22 13:59:36;;;;;;;11.88;4.15;;;18.50;57.30;;;;;;5050668;28;20041;-44
2022/04/22 14:02:02;;;;;;;7.65;3.38;;;18.40;57.40;;;;;;5050569;28;20163;-45
2022/04/22 14:04:27;;;;;;;8.88;3.97;;;18.30;57.50;;;;;;5049948;28;20503;-45
2022/04/22 14:06:53;;;;;;;6.82;3.97;;;17.90;57.30;;;;;;5050499;28;20073;-44